Time;durP1;ratioP1;P1;durP2;ratioP2;P2;SDS_P1;SDS_P2;PMS_P1;PMS_P2;Temp;Humidity;BMP_temperature;BMP_pressure;BME280_temperature;BME280_humidity;BME280_pressure;Samples;Min_cycle;Max_cycle;Signal;HPM_P1;HPM_P2
2021/12/30 00:01:48;;;;;;;65.63;27.20;;;;;;;;;;767168;182;921068;-65
2021/12/30 00:04:13;;;;;;;84.77;30.10;;;;;;;;;;771516;182;919270;-66
2021/12/30 00:06:40;;;;;;;82.83;33.47;;;;;;;;;;767260;182;918320;-65
2021/12/30 00:09:05;;;;;;;110.50;40.03;;;;;;;;;;766505;183;918188;-65
2021/12/30 00:11:31;;;;;;;108.83;43.83;;;;;;;;;;769162;182;919347;-65
2021/12/30 00:13:57;;;;;;;109.40;46.60;;;;;;;;;;764360;182;918728;-65
2021/12/30 00:16:23;;;;;;;104.87;41.87;;;;;;;;;;765290;183;918340;-65
2021/12/30 00:18:49;;;;;;;125.62;40.72;;;;;;;;;;769961;182;920711;-64
2021/12/30 00:21:15;;;;;;;120.93;38.90;;;;;;;;;;766055;183;919397;-65
2021/12/30 00:23:41;;;;;;;110.23;37.00;;;;;;;;;;764768;183;918966;-65
2021/12/30 00:26:07;;;;;;;117.07;37.92;;;;;;;;;;767031;183;919715;-65
2021/12/30 00:28:32;;;;;;;119.17;38.20;;;;;;;;;;772996;183;919625;-65
2021/12/30 00:30:58;;;;;;;128.87;38.00;;;;;;;;;;773604;182;627763;-65
2021/12/30 00:33:24;;;;;;;127.87;42.37;;;;;;;;;;768448;182;630652;-65
2021/12/30 00:35:50;;;;;;;122.63;39.33;;;;;;;;;;773676;182;619009;-64
2021/12/30 00:38:16;;;;;;;117.57;39.17;;;;;;;;;;772638;182;630733;-66
2021/12/30 00:40:42;;;;;;;83.40;35.40;;;;;;;;;;770328;183;634435;-64
2021/12/30 00:43:08;;;;;;;103.63;34.40;;;;;;;;;;770101;182;1022686;-65
2021/12/30 00:45:33;;;;;;;102.33;35.03;;;;;;;;;;766679;181;920222;-64
2021/12/30 00:47:59;;;;;;;113.67;39.17;;;;;;;;;;767763;181;920244;-65
2021/12/30 00:50:25;;;;;;;106.07;33.73;;;;;;;;;;770150;179;940944;-65
2021/12/30 00:52:51;;;;;;;108.20;35.67;;;;;;;;;;775428;182;912347;-66
2021/12/30 00:55:17;;;;;;;120.30;34.03;;;;;;;;;;770225;182;920389;-64
2021/12/30 00:57:43;;;;;;;103.63;33.23;;;;;;;;;;769172;182;918728;-65
2021/12/30 01:00:09;;;;;;;118.73;38.57;;;;;;;;;;769440;180;916684;-64
2021/12/30 01:02:35;;;;;;;103.23;35.57;;;;;;;;;;770831;182;917832;-63
2021/12/30 01:05:01;;;;;;;170.07;55.77;;;;;;;;;;767072;182;912450;-65
2021/12/30 01:07:27;;;;;;;145.03;47.77;;;;;;;;;;773955;182;912869;-65
2021/12/30 01:09:53;;;;;;;124.07;38.53;;;;;;;;;;767823;183;929217;-65
2021/12/30 01:12:19;;;;;;;119.60;40.17;;;;;;;;;;762751;182;916296;-64
2021/12/30 01:14:46;;;;;;;109.93;37.83;;;;;;;;;;766447;182;916100;-64
2021/12/30 01:17:21;;;;;;;117.50;38.67;;;;;;;;;;769594;182;916195;-63
2021/12/30 01:19:42;;;;;;;100.57;36.73;;;;;;;;;;767297;182;916296;-65
2021/12/30 01:22:08;;;;;;;119.20;36.17;;;;;;;;;;768242;182;914690;-65
2021/12/30 01:24:34;;;;;;;123.33;37.97;;;;;;;;;;774036;182;915747;-64
2021/12/30 01:26:59;;;;;;;103.40;38.13;;;;;;;;;;768193;179;916781;-65
2021/12/30 01:29:29;;;;;;;119.40;36.27;;;;;;;;;;768640;182;916087;-66
2021/12/30 01:31:51;;;;;;;96.03;37.53;;;;;;;;;;764808;182;916519;-66
2021/12/30 01:34:17;;;;;;;78.60;30.47;;;;;;;;;;767438;180;915325;-65
2021/12/30 01:36:43;;;;;;;93.33;31.70;;;;;;;;;;767060;182;915534;-65
2021/12/30 01:39:09;;;;;;;87.83;33.33;;;;;;;;;;765246;183;1018541;-65
2021/12/30 01:41:34;;;;;;;74.53;29.33;;;;;;;;;;773714;183;915926;-65
2021/12/30 01:44:00;;;;;;;76.07;30.63;;;;;;;;;;766962;183;1018068;-64
2021/12/30 01:46:26;;;;;;;77.10;31.23;;;;;;;;;;766378;183;916553;-65
2021/12/30 01:48:52;;;;;;;88.93;31.60;;;;;;;;;;772700;182;915496;-65
2021/12/30 01:51:18;;;;;;;88.03;32.77;;;;;;;;;;769078;182;915813;-64
2021/12/30 01:53:44;;;;;;;101.37;33.17;;;;;;;;;;765680;182;915816;-65
2021/12/30 01:56:10;;;;;;;97.28;33.55;;;;;;;;;;767192;179;931225;-64
2021/12/30 01:58:36;;;;;;;73.40;30.93;;;;;;;;;;769463;180;915939;-65
2021/12/30 02:01:01;;;;;;;90.57;31.33;;;;;;;;;;768951;181;915698;-66
2021/12/30 02:03:29;;;;;;;95.40;34.10;;;;;;;;;;765628;182;1018356;-65
2021/12/30 02:05:54;;;;;;;90.80;33.10;;;;;;;;;;772988;182;915331;-64
2021/12/30 02:08:20;;;;;;;88.30;33.77;;;;;;;;;;766766;182;916022;-65
2021/12/30 02:10:46;;;;;;;82.07;31.67;;;;;;;;;;768502;182;915563;-65
2021/12/30 02:13:12;;;;;;;91.77;33.30;;;;;;;;;;770238;183;914994;-65
2021/12/30 02:15:38;;;;;;;79.20;34.60;;;;;;;;;;767441;183;915660;-66
2021/12/30 02:18:04;;;;;;;82.80;29.83;;;;;;;;;;766457;183;916599;-64
2021/12/30 02:20:37;;;;;;;85.78;32.53;;;;;;;;;;770482;183;917006;-65
2021/12/30 02:23:02;;;;;;;94.80;32.57;;;;;;;;;;772191;180;916724;-64
2021/12/30 02:25:28;;;;;;;106.00;33.90;;;;;;;;;;767457;182;914986;-64
2021/12/30 02:27:54;;;;;;;93.10;33.40;;;;;;;;;;766185;182;916424;-65
2021/12/30 02:30:19;;;;;;;108.47;36.03;;;;;;;;;;773133;180;916766;-65
2021/12/30 02:32:45;;;;;;;84.07;30.50;;;;;;;;;;768679;182;915086;-65
2021/12/30 02:35:11;;;;;;;72.30;31.10;;;;;;;;;;766825;179;916418;-64
2021/12/30 02:37:38;;;;;;;84.65;31.60;;;;;;;;;;771769;182;916552;-64
2021/12/30 02:40:05;;;;;;;95.03;33.23;;;;;;;;;;768862;183;914342;-64
2021/12/30 02:42:30;;;;;;;79.57;31.83;;;;;;;;;;762733;183;916461;-64
2021/12/30 02:44:56;;;;;;;97.20;33.90;;;;;;;;;;757519;183;916047;-65
2021/12/30 02:47:22;;;;;;;103.23;37.07;;;;;;;;;;769229;182;919954;-65
2021/12/30 02:49:47;;;;;;;103.63;37.50;;;;;;;;;;767256;182;916317;-65
2021/12/30 02:52:13;;;;;;;99.07;33.03;;;;;;;;;;763964;183;919653;-65
2021/12/30 02:54:39;;;;;;;102.53;36.10;;;;;;;;;;772304;183;916357;-65
2021/12/30 02:57:05;;;;;;;107.20;34.83;;;;;;;;;;764734;182;914766;-65
2021/12/30 02:59:31;;;;;;;106.55;36.35;;;;;;;;;;766937;182;915761;-63
2021/12/30 03:01:57;;;;;;;116.43;36.07;;;;;;;;;;772424;183;916346;-65
2021/12/30 03:04:23;;;;;;;107.87;36.93;;;;;;;;;;765364;183;1016688;-65
2021/12/30 03:06:50;;;;;;;94.03;35.83;;;;;;;;;;760494;183;914626;-65
2021/12/30 03:09:16;;;;;;;92.80;33.50;;;;;;;;;;763659;183;916066;-64
2021/12/30 03:11:42;;;;;;;108.30;36.17;;;;;;;;;;773510;182;916812;-65
2021/12/30 03:14:08;;;;;;;114.10;36.10;;;;;;;;;;768454;182;1022339;-65
2021/12/30 03:16:35;;;;;;;102.80;37.60;;;;;;;;;;768508;182;916010;-65
2021/12/30 03:18:59;;;;;;;105.97;36.50;;;;;;;;;;772476;182;915609;-65
2021/12/30 03:21:25;;;;;;;125.97;38.50;;;;;;;;;;767262;182;919998;-64
2021/12/30 03:23:51;;;;;;;131.30;38.47;;;;;;;;;;767302;183;919526;-64
2021/12/30 03:26:17;;;;;;;106.20;34.50;;;;;;;;;;770720;182;915871;-64
2021/12/30 03:28:43;;;;;;;122.27;35.80;;;;;;;;;;763364;183;916409;-65
2021/12/30 03:31:09;;;;;;;124.83;36.43;;;;;;;;;;767287;179;920056;-65
2021/12/30 03:33:34;;;;;;;94.70;35.07;;;;;;;;;;766439;183;917157;-64
2021/12/30 03:36:00;;;;;;;101.60;35.07;;;;;;;;;;770777;180;919646;-65
2021/12/30 03:38:26;;;;;;;128.20;37.20;;;;;;;;;;763074;183;919401;-65
2021/12/30 03:40:52;;;;;;;112.95;38.17;;;;;;;;;;766771;183;919360;-64
2021/12/30 03:43:18;;;;;;;114.57;39.73;;;;;;;;;;773844;182;914801;-65
2021/12/30 03:45:44;;;;;;;111.60;35.43;;;;;;;;;;772048;182;911722;-65
2021/12/30 03:48:10;;;;;;;115.20;35.07;;;;;;;;;;765812;183;920679;-63
2021/12/30 03:50:42;;;;;;;118.07;37.00;;;;;;;;;;771485;183;919475;-65
2021/12/30 03:53:01;;;;;;;103.33;34.33;;;;;;;;;;767766;182;918707;-64
2021/12/30 03:55:28;;;;;;;109.80;36.70;;;;;;;;;;765088;179;919589;-65
2021/12/30 03:57:53;;;;;;;77.07;32.43;;;;;;;;;;767689;182;919143;-65
2021/12/30 04:00:19;;;;;;;89.63;32.40;;;;;;;;;;767765;183;916265;-65
2021/12/30 04:02:45;;;;;;;102.63;33.80;;;;;;;;;;760148;182;920893;-65
2021/12/30 04:05:10;;;;;;;100.50;32.33;;;;;;;;;;765325;183;917053;-65
2021/12/30 04:07:36;;;;;;;93.23;32.27;;;;;;;;;;773455;182;912581;-65
2021/12/30 04:10:02;;;;;;;100.57;34.20;;;;;;;;;;766183;182;919709;-65
2021/12/30 04:12:28;;;;;;;92.30;30.20;;;;;;;;;;766188;182;933706;-64
2021/12/30 04:14:54;;;;;;;75.23;27.67;;;;;;;;;;771712;182;915268;-65
2021/12/30 04:17:22;;;;;;;69.20;26.08;;;;;;;;;;765627;183;918528;-64
2021/12/30 04:19:46;;;;;;;56.13;22.60;;;;;;;;;;766267;182;912744;-65
2021/12/30 04:22:14;;;;;;;71.33;25.10;;;;;;;;;;767054;180;912708;-63
2021/12/30 04:24:37;;;;;;;63.10;26.73;;;;;;;;;;775829;179;911592;-64
2021/12/30 04:27:03;;;;;;;74.30;25.30;;;;;;;;;;769025;182;919339;-65
2021/12/30 04:29:29;;;;;;;85.22;27.62;;;;;;;;;;768573;182;914570;-64
2021/12/30 04:31:57;;;;;;;86.40;28.20;;;;;;;;;;772034;182;918278;-65
2021/12/30 04:34:21;;;;;;;82.53;26.47;;;;;;;;;;765834;183;918259;-65
2021/12/30 04:36:47;;;;;;;89.60;25.80;;;;;;;;;;768311;182;911215;-66
2021/12/30 04:39:12;;;;;;;115.07;28.47;;;;;;;;;;771803;182;911485;-65
2021/12/30 04:41:38;;;;;;;116.53;29.05;;;;;;;;;;767690;180;919497;-64
2021/12/30 04:44:04;;;;;;;82.50;25.13;;;;;;;;;;765566;183;920471;-64
2021/12/30 04:46:30;;;;;;;118.80;28.87;;;;;;;;;;769382;183;918568;-65
2021/12/30 04:48:56;;;;;;;125.33;30.37;;;;;;;;;;765858;182;986199;-65
2021/12/30 04:51:22;;;;;;;117.40;25.87;;;;;;;;;;766580;180;916486;-65
2021/12/30 04:53:48;;;;;;;89.33;27.70;;;;;;;;;;765514;182;1108948;-66
2021/12/30 04:56:14;;;;;;;145.55;27.83;;;;;;;;;;770190;182;911352;-65
2021/12/30 04:58:40;;;;;;;154.97;31.00;;;;;;;;;;766738;182;943051;-65
2021/12/30 05:01:05;;;;;;;163.50;33.43;;;;;;;;;;766580;182;919678;-67
2021/12/30 05:03:31;;;;;;;235.07;36.70;;;;;;;;;;773981;182;633636;-65
2021/12/30 05:05:58;;;;;;;199.37;34.40;;;;;;;;;;769249;183;626738;-67
2021/12/30 05:08:23;;;;;;;134.10;30.93;;;;;;;;;;767790;183;883112;-65
2021/12/30 05:10:49;;;;;;;100.00;25.83;;;;;;;;;;771701;183;919369;-65
2021/12/30 05:13:15;;;;;;;202.17;36.03;;;;;;;;;;766084;182;917630;-64
2021/12/30 05:15:41;;;;;;;140.90;31.90;;;;;;;;;;770909;180;617347;-65
2021/12/30 05:18:07;;;;;;;155.83;32.37;;;;;;;;;;767774;183;917244;-64
2021/12/30 05:20:33;;;;;;;173.63;33.70;;;;;;;;;;775723;180;918919;-65
2021/12/30 05:22:59;;;;;;;189.80;35.30;;;;;;;;;;760689;182;919739;-65
2021/12/30 05:25:25;;;;;;;216.60;42.30;;;;;;;;;;768024;182;918881;-65
2021/12/30 05:27:51;;;;;;;156.87;33.53;;;;;;;;;;775434;182;625161;-65
2021/12/30 05:30:16;;;;;;;131.40;28.80;;;;;;;;;;773407;182;633739;-64
2021/12/30 05:32:42;;;;;;;86.40;27.07;;;;;;;;;;770119;182;918971;-64
2021/12/30 05:35:09;;;;;;;83.33;25.57;;;;;;;;;;775199;180;919332;-64
2021/12/30 05:37:35;;;;;;;87.47;26.17;;;;;;;;;;770069;182;918878;-64
2021/12/30 05:40:01;;;;;;;165.98;35.13;;;;;;;;;;765416;182;919106;-64
2021/12/30 05:42:26;;;;;;;88.40;25.90;;;;;;;;;;769264;182;919164;-68
2021/12/30 05:44:52;;;;;;;79.97;26.27;;;;;;;;;;778036;179;918292;-64
2021/12/30 05:47:18;;;;;;;88.00;25.47;;;;;;;;;;768935;183;919181;-64
2021/12/30 05:49:44;;;;;;;90.97;26.37;;;;;;;;;;768164;183;918714;-64
2021/12/30 05:52:11;;;;;;;110.57;26.10;;;;;;;;;;773588;182;919121;-64
2021/12/30 05:54:36;;;;;;;124.90;24.80;;;;;;;;;;769436;182;919787;-64
2021/12/30 05:57:02;;;;;;;177.10;36.43;;;;;;;;;;764441;180;919486;-65
2021/12/30 05:59:27;;;;;;;78.23;26.77;;;;;;;;;;771396;182;919529;-64
2021/12/30 06:01:53;;;;;;;80.47;22.80;;;;;;;;;;764018;182;920930;-64
2021/12/30 06:04:19;;;;;;;62.60;23.77;;;;;;;;;;766410;182;918985;-65
2021/12/30 06:06:45;;;;;;;91.30;23.90;;;;;;;;;;773148;180;919706;-63
2021/12/30 06:09:11;;;;;;;106.53;30.10;;;;;;;;;;775528;180;918120;-64
2021/12/30 06:11:37;;;;;;;85.70;26.80;;;;;;;;;;764955;180;918284;-64
2021/12/30 06:14:03;;;;;;;79.60;25.45;;;;;;;;;;764524;182;920457;-65
2021/12/30 06:16:29;;;;;;;70.13;25.80;;;;;;;;;;767455;182;920123;-64
2021/12/30 06:18:57;;;;;;;62.47;21.97;;;;;;;;;;762617;183;919905;-64
2021/12/30 06:21:21;;;;;;;64.43;23.60;;;;;;;;;;764241;183;918756;-64
2021/12/30 06:23:46;;;;;;;64.37;22.70;;;;;;;;;;771755;183;917203;-65
2021/12/30 06:26:12;;;;;;;55.20;24.70;;;;;;;;;;765077;183;919672;-65
2021/12/30 06:28:38;;;;;;;54.77;23.37;;;;;;;;;;768111;182;919712;-64
2021/12/30 06:31:04;;;;;;;50.20;23.80;;;;;;;;;;773581;182;918409;-64
2021/12/30 06:33:30;;;;;;;51.73;22.00;;;;;;;;;;763342;182;919219;-65
2021/12/30 06:35:56;;;;;;;64.33;25.30;;;;;;;;;;767965;182;919116;-65
2021/12/30 06:38:22;;;;;;;59.97;25.00;;;;;;;;;;764468;183;919496;-64
2021/12/30 06:40:47;;;;;;;67.95;26.65;;;;;;;;;;773004;180;915042;-64
2021/12/30 06:43:13;;;;;;;71.57;29.47;;;;;;;;;;766835;183;918812;-65
2021/12/30 06:45:39;;;;;;;67.90;28.20;;;;;;;;;;767193;181;927847;-65
2021/12/30 06:48:06;;;;;;;67.60;28.77;;;;;;;;;;773926;182;921568;-65
2021/12/30 06:50:32;;;;;;;70.50;27.20;;;;;;;;;;767707;182;919584;-65
2021/12/30 06:52:57;;;;;;;53.40;24.70;;;;;;;;;;767060;183;997733;-65
2021/12/30 06:55:23;;;;;;;54.20;23.47;;;;;;;;;;771608;182;918678;-65
2021/12/30 06:57:48;;;;;;;70.03;26.27;;;;;;;;;;767093;182;919495;-65
2021/12/30 07:00:14;;;;;;;58.47;24.40;;;;;;;;;;766988;181;918078;-64
2021/12/30 07:02:40;;;;;;;55.43;23.63;;;;;;;;;;763836;182;920024;-65
2021/12/30 07:05:06;;;;;;;54.93;23.20;;;;;;;;;;761535;183;919055;-64
2021/12/30 07:07:32;;;;;;;65.43;25.80;;;;;;;;;;757169;183;929410;-65
2021/12/30 07:09:58;;;;;;;64.67;25.27;;;;;;;;;;766213;182;919296;-66
2021/12/30 07:12:24;;;;;;;63.23;23.73;;;;;;;;;;770700;183;918204;-65
2021/12/30 07:14:50;;;;;;;59.73;24.53;;;;;;;;;;766951;182;919666;-65
2021/12/30 07:17:16;;;;;;;66.60;26.63;;;;;;;;;;764513;182;919345;-66
2021/12/30 07:19:41;;;;;;;63.10;26.37;;;;;;;;;;766406;182;918670;-64
2021/12/30 07:22:07;;;;;;;54.75;24.85;;;;;;;;;;762425;183;923190;-65
2021/12/30 07:24:33;;;;;;;52.60;23.60;;;;;;;;;;766557;183;919681;-64
2021/12/30 07:26:59;;;;;;;79.77;23.57;;;;;;;;;;763758;183;924876;-63
2021/12/30 07:29:25;;;;;;;49.50;24.50;;;;;;;;;;761996;183;815698;-66
2021/12/30 07:31:51;;;;;;;51.63;25.20;;;;;;;;;;756364;184;918799;-65
2021/12/30 07:34:16;;;;;;;52.88;24.25;;;;;;;;;;766000;183;919488;-64
2021/12/30 07:36:42;;;;;;;50.80;22.07;;;;;;;;;;770961;183;919200;-65
2021/12/30 07:39:09;;;;;;;53.53;24.07;;;;;;;;;;763059;182;922214;-66
2021/12/30 07:41:34;;;;;;;58.87;24.37;;;;;;;;;;761920;182;943123;-65
2021/12/30 07:44:01;;;;;;;64.27;25.07;;;;;;;;;;770291;183;919489;-64
2021/12/30 07:46:27;;;;;;;49.73;23.87;;;;;;;;;;762092;183;1021652;-66
2021/12/30 07:48:52;;;;;;;55.90;24.87;;;;;;;;;;761341;183;917476;-66
2021/12/30 07:51:19;;;;;;;58.55;22.00;;;;;;;;;;765705;182;1022449;-65
2021/12/30 07:53:45;;;;;;;44.40;21.23;;;;;;;;;;776741;180;638865;-66
2021/12/30 07:56:11;;;;;;;46.43;22.53;;;;;;;;;;762446;182;919155;-64
2021/12/30 07:58:37;;;;;;;45.60;20.60;;;;;;;;;;769074;181;918923;-65
2021/12/30 08:01:03;;;;;;;36.87;19.30;;;;;;;;;;773548;182;919462;-63
2021/12/30 08:03:28;;;;;;;41.33;19.57;;;;;;;;;;768584;182;923359;-65
2021/12/30 08:05:54;;;;;;;43.37;21.40;;;;;;;;;;766837;182;918633;-64
2021/12/30 08:08:20;;;;;;;37.17;18.30;;;;;;;;;;771348;182;918454;-63
2021/12/30 08:10:46;;;;;;;37.37;21.07;;;;;;;;;;766474;182;918471;-64
2021/12/30 08:13:12;;;;;;;41.17;20.90;;;;;;;;;;767542;182;919095;-65
2021/12/30 08:15:38;;;;;;;34.50;19.30;;;;;;;;;;770103;182;920702;-64
2021/12/30 08:18:03;;;;;;;35.55;18.35;;;;;;;;;;766431;182;920405;-64
2021/12/30 08:20:29;;;;;;;35.57;17.70;;;;;;;;;;766284;181;917781;-65
2021/12/30 08:22:56;;;;;;;33.00;18.77;;;;;;;;;;764465;183;919144;-65
2021/12/30 08:25:21;;;;;;;37.80;20.23;;;;;;;;;;772776;182;917908;-63
2021/12/30 08:27:47;;;;;;;37.67;18.93;;;;;;;;;;767240;182;917797;-64
2021/12/30 08:30:13;;;;;;;29.87;16.90;;;;;;;;;;765926;182;918290;-65
2021/12/30 08:32:39;;;;;;;37.30;18.10;;;;;;;;;;771885;182;916793;-62
2021/12/30 08:35:05;;;;;;;32.07;17.70;;;;;;;;;;767530;183;918631;-64
2021/12/30 08:37:32;;;;;;;31.17;16.10;;;;;;;;;;765538;182;919110;-64
2021/12/30 08:39:57;;;;;;;33.47;18.05;;;;;;;;;;771126;182;920496;-64
2021/12/30 08:42:23;;;;;;;39.57;18.87;;;;;;;;;;766219;182;918206;-64
2021/12/30 08:44:49;;;;;;;35.92;17.00;;;;;;;;;;765908;182;920764;-64
2021/12/30 08:47:15;;;;;;;29.20;15.80;;;;;;;;;;765067;182;920775;-64
2021/12/30 08:49:44;;;;;;;37.30;16.20;;;;;;;;;;771067;182;918047;-63
2021/12/30 08:52:07;;;;;;;33.00;16.63;;;;;;;;;;766851;183;914443;-64
2021/12/30 08:54:35;;;;;;;37.17;18.90;;;;;;;;;;765401;182;920262;-65
2021/12/30 08:56:59;;;;;;;34.00;18.37;;;;;;;;;;770671;183;920605;-65
2021/12/30 08:59:24;;;;;;;32.43;17.77;;;;;;;;;;767721;182;912955;-65
2021/12/30 09:01:50;;;;;;;35.10;17.33;;;;;;;;;;765084;182;934771;-64
2021/12/30 09:04:16;;;;;;;39.47;19.60;;;;;;;;;;771968;182;915315;-64
2021/12/30 09:06:42;;;;;;;42.93;19.17;;;;;;;;;;762001;182;915576;-64
2021/12/30 09:09:08;;;;;;;43.37;18.77;;;;;;;;;;765309;182;917952;-63
2021/12/30 09:11:34;;;;;;;35.87;18.70;;;;;;;;;;770607;182;920790;-64
2021/12/30 09:13:59;;;;;;;42.80;18.90;;;;;;;;;;770561;182;919363;-64
2021/12/30 09:16:25;;;;;;;30.37;17.80;;;;;;;;;;767820;182;918892;-64
2021/12/30 09:18:51;;;;;;;35.90;16.40;;;;;;;;;;767356;182;918551;-63
2021/12/30 09:21:17;;;;;;;38.43;18.63;;;;;;;;;;771394;182;918386;-64
2021/12/30 09:23:43;;;;;;;39.77;20.20;;;;;;;;;;765832;183;919521;-64
2021/12/30 09:26:09;;;;;;;33.20;17.57;;;;;;;;;;765989;182;919044;-64
2021/12/30 09:28:35;;;;;;;31.03;17.43;;;;;;;;;;766949;182;918936;-64
2021/12/30 09:31:00;;;;;;;34.07;20.80;;;;;;;;;;767714;179;921838;-64
2021/12/30 09:33:26;;;;;;;35.30;18.57;;;;;;;;;;768286;182;920049;-64
2021/12/30 09:35:54;;;;;;;33.83;19.50;;;;;;;;;;769035;182;1021820;-64
2021/12/30 09:38:20;;;;;;;30.47;16.70;;;;;;;;;;771451;182;917957;-63
2021/12/30 09:40:47;;;;;;;33.30;16.23;;;;;;;;;;767441;182;1015101;-63
2021/12/30 09:43:13;;;;;;;30.67;15.77;;;;;;;;;;765642;183;918949;-62
2021/12/30 09:45:39;;;;;;;30.53;16.50;;;;;;;;;;770447;182;918002;-64
2021/12/30 09:48:07;;;;;;;40.10;19.60;;;;;;;;;;768129;182;919031;-64
2021/12/30 09:50:32;;;;;;;37.40;19.33;;;;;;;;;;766397;180;922254;-64
2021/12/30 09:52:57;;;;;;;36.10;19.13;;;;;;;;;;772437;183;918363;-64
2021/12/30 09:55:25;;;;;;;34.53;19.23;;;;;;;;;;766333;183;919900;-64
2021/12/30 09:57:49;;;;;;;28.83;15.57;;;;;;;;;;764553;183;919915;-63
2021/12/30 10:00:15;;;;;;;28.53;15.20;;;;;;;;;;767707;182;920249;-63
2021/12/30 10:02:41;;;;;;;25.13;15.20;;;;;;;;;;764368;183;919667;-64
2021/12/30 10:05:07;;;;;;;34.40;17.67;;;;;;;;;;763910;183;919460;-63
2021/12/30 10:07:33;;;;;;;30.87;18.90;;;;;;;;;;763132;182;919315;-61
2021/12/30 10:10:02;;;;;;;33.93;18.27;;;;;;;;;;771968;182;920109;-64
2021/12/30 10:12:31;;;;;;;35.37;18.57;;;;;;;;;;763000;182;919622;-63
2021/12/30 10:14:57;;;;;;;38.25;20.35;;;;;;;;;;766384;182;919509;-63
2021/12/30 10:17:23;;;;;;;34.33;20.60;;;;;;;;;;765480;182;1022649;-65
2021/12/30 10:19:50;;;;;;;33.70;19.87;;;;;;;;;;770916;181;920162;-63
2021/12/30 10:22:14;;;;;;;31.83;18.27;;;;;;;;;;772064;182;920043;-62
2021/12/30 10:24:40;;;;;;;38.67;20.60;;;;;;;;;;769077;182;919598;-66
2021/12/30 10:27:06;;;;;;;43.57;21.40;;;;;;;;;;774250;182;918514;-66
2021/12/30 10:29:38;;;;;;;35.50;19.57;;;;;;;;;;767328;182;918058;-66
2021/12/30 10:32:04;;;;;;;39.27;22.00;;;;;;;;;;768179;182;919912;-66
2021/12/30 10:34:30;;;;;;;34.27;18.73;;;;;;;;;;766817;182;926308;-67
2021/12/30 10:36:56;;;;;;;37.93;20.83;;;;;;;;;;764736;183;919067;-68
2021/12/30 10:39:27;;;;;;;33.30;20.67;;;;;;;;;;764583;182;918362;-66
2021/12/30 10:42:10;;;;;;;44.37;23.47;;;;;;;;;;766330;182;920050;-66
2021/12/30 10:44:40;;;;;;;44.40;23.87;;;;;;;;;;762596;183;919849;-67
2021/12/30 10:47:06;;;;;;;47.88;26.27;;;;;;;;;;766898;182;920610;-64
2021/12/30 10:49:32;;;;;;;44.93;23.53;;;;;;;;;;770197;181;918615;-66
2021/12/30 10:51:59;;;;;;;42.20;22.43;;;;;;;;;;763995;183;919462;-66
2021/12/30 10:54:25;;;;;;;38.63;21.60;;;;;;;;;;763612;182;1020964;-65
2021/12/30 10:56:57;;;;;;;46.30;18.90;;;;;;;;;;771020;182;918529;-64
2021/12/30 10:59:23;;;;;;;33.20;20.65;;;;;;;;;;764938;182;919296;-64
2021/12/30 11:01:50;;;;;;;40.07;21.50;;;;;;;;;;765400;182;919188;-64
2021/12/30 11:04:18;;;;;;;36.73;18.93;;;;;;;;;;765786;183;919744;-63
2021/12/30 11:06:44;;;;;;;36.00;19.47;;;;;;;;;;772786;182;919990;-64
2021/12/30 11:09:15;;;;;;;43.27;19.77;;;;;;;;;;767011;182;919826;-63
2021/12/30 11:11:44;;;;;;;40.23;20.77;;;;;;;;;;767201;183;919095;-65
2021/12/30 11:14:11;;;;;;;37.73;19.40;;;;;;;;;;765005;183;919954;-64
2021/12/30 11:16:39;;;;;;;36.90;19.20;;;;;;;;;;760362;184;919506;-65
2021/12/30 11:19:05;;;;;;;37.50;20.40;;;;;;;;;;755128;184;919940;-64
2021/12/30 11:21:35;;;;;;;44.75;21.05;;;;;;;;;;760454;184;918752;-65
2021/12/30 11:24:01;;;;;;;36.57;19.37;;;;;;;;;;760416;184;918729;-64
2021/12/30 11:26:26;;;;;;;38.10;19.33;;;;;;;;;;767650;182;920045;-64
2021/12/30 11:28:52;;;;;;;43.50;20.80;;;;;;;;;;765699;182;924478;-65
2021/12/30 11:31:18;;;;;;;36.53;21.90;;;;;;;;;;761797;182;1022028;-63
2021/12/30 11:33:44;;;;;;;47.70;23.17;;;;;;;;;;775788;180;919527;-64
2021/12/30 11:36:10;;;;;;;39.03;21.53;;;;;;;;;;768835;182;919093;-65
2021/12/30 11:38:36;;;;;;;35.85;20.27;;;;;;;;;;767517;182;919416;-64
2021/12/30 11:41:02;;;;;;;41.07;21.10;;;;;;;;;;771636;181;918108;-64
2021/12/30 11:43:27;;;;;;;35.50;19.37;;;;;;;;;;767258;182;919735;-65
2021/12/30 11:45:53;;;;;;;37.03;19.97;;;;;;;;;;764274;182;919013;-64
2021/12/30 11:48:25;;;;;;;30.43;17.27;;;;;;;;;;771693;182;918977;-64
2021/12/30 11:50:50;;;;;;;33.43;19.23;;;;;;;;;;769410;182;919164;-64
2021/12/30 11:53:21;;;;;;;33.50;19.60;;;;;;;;;;764233;183;918993;-64
2021/12/30 11:56:02;;;;;;;35.37;19.27;;;;;;;;;;764812;182;922067;-64
2021/12/30 11:58:41;;;;;;;35.83;17.87;;;;;;;;;;767716;183;919446;-64
2021/12/30 12:01:25;;;;;;;33.20;18.07;;;;;;;;;;767640;180;917707;-64
2021/12/30 12:04:03;;;;;;;36.33;20.03;;;;;;;;;;763243;183;918995;-64
2021/12/30 12:06:30;;;;;;;34.75;17.98;;;;;;;;;;763457;183;918397;-63
2021/12/30 12:08:54;;;;;;;42.13;20.17;;;;;;;;;;767406;183;917923;-64
2021/12/30 12:11:20;;;;;;;32.67;18.43;;;;;;;;;;768587;182;916029;-64
2021/12/30 12:13:46;;;;;;;34.00;20.10;;;;;;;;;;767818;182;915590;-64
2021/12/30 12:16:13;;;;;;;57.03;33.30;;;;;;;;;;773739;182;919542;-64
2021/12/30 12:18:43;;;;;;;49.93;24.63;;;;;;;;;;758638;182;919861;-63
2021/12/30 12:21:05;;;;;;;44.23;22.23;;;;;;;;;;762777;183;919529;-63
2021/12/30 12:23:32;;;;;;;37.87;21.57;;;;;;;;;;772232;183;919003;-64
2021/12/30 12:26:06;;;;;;;44.63;22.23;;;;;;;;;;763744;182;919510;-64
2021/12/30 12:28:31;;;;;;;43.37;23.57;;;;;;;;;;760400;183;919387;-63
2021/12/30 12:30:58;;;;;;;38.70;22.60;;;;;;;;;;766312;183;919434;-64
2021/12/30 12:33:26;;;;;;;51.80;29.17;;;;;;;;;;770760;182;922080;-64
2021/12/30 12:35:53;;;;;;;93.43;52.30;;;;;;;;;;767488;183;916556;-63
2021/12/30 12:38:25;;;;;;;81.97;45.17;;;;;;;;;;767665;182;918091;-63
2021/12/30 12:40:53;;;;;;;69.70;40.33;;;;;;;;;;765319;182;1020789;-63
2021/12/30 12:43:25;;;;;;;92.13;44.80;;;;;;;;;;773858;180;916703;-65
2021/12/30 12:45:51;;;;;;;64.40;36.07;;;;;;;;;;771822;182;915198;-64
2021/12/30 12:48:20;;;;;;;100.27;47.73;;;;;;;;;;768734;182;915175;-63
2021/12/30 12:50:48;;;;;;;139.23;79.40;;;;;;;;;;767152;182;915183;-64
2021/12/30 12:53:21;;;;;;;116.40;56.97;;;;;;;;;;772009;182;914066;-63
2021/12/30 12:55:47;;;;;;;88.40;47.17;;;;;;;;;;769066;182;920890;-64
2021/12/30 12:58:13;;;;;;;96.50;50.23;;;;;;;;;;767654;182;919561;-63
2021/12/30 13:00:39;;;;;;;96.07;48.67;;;;;;;;;;762029;180;918495;-65
2021/12/30 13:03:04;;;;;;;98.53;48.85;;;;;;;;;;769198;183;1046947;-63
2021/12/30 13:05:30;;;;;;;73.27;42.87;;;;;;;;;;766412;183;920242;-63
2021/12/30 13:07:57;;;;;;;61.60;37.57;;;;;;;;;;766225;182;916344;-64
2021/12/30 13:10:22;;;;;;;67.17;35.57;;;;;;;;;;771796;180;943750;-64
2021/12/30 13:12:48;;;;;;;44.00;21.97;;;;;;;;;;767056;182;916768;-64
2021/12/30 13:15:14;;;;;;;36.17;21.30;;;;;;;;;;766443;183;919372;-64
2021/12/30 13:17:43;;;;;;;34.43;19.97;;;;;;;;;;766922;182;1024770;-64
2021/12/30 13:20:09;;;;;;;35.00;19.60;;;;;;;;;;766113;183;919314;-63
2021/12/30 13:22:35;;;;;;;39.47;25.87;;;;;;;;;;763668;182;922493;-64
2021/12/30 13:25:01;;;;;;;73.33;38.20;;;;;;;;;;766503;182;919625;-64
2021/12/30 13:27:29;;;;;;;78.97;36.95;;;;;;;;;;770045;183;920132;-64
2021/12/30 13:29:55;;;;;;;162.97;66.53;;;;;;;;;;766841;182;919528;-63
2021/12/30 13:32:23;;;;;;;160.10;68.40;;;;;;;;;;765268;182;919281;-64
2021/12/30 13:34:58;;;;;;;134.47;55.47;;;;;;;;;;766058;182;919049;-63
2021/12/30 13:37:26;;;;;;;151.23;58.17;;;;;;;;;;772786;182;919014;-64
2021/12/30 13:39:54;;;;;;;136.13;53.63;;;;;;;;;;769895;183;919235;-64
2021/12/30 13:42:16;;;;;;;92.80;37.60;;;;;;;;;;764805;183;919160;-64
2021/12/30 13:44:42;;;;;;;119.53;42.40;;;;;;;;;;767380;182;918875;-64
2021/12/30 13:47:14;;;;;;;123.37;49.10;;;;;;;;;;772740;180;919136;-65
2021/12/30 13:49:40;;;;;;;93.30;44.53;;;;;;;;;;767676;182;920999;-67
2021/12/30 13:52:06;;;;;;;93.80;40.97;;;;;;;;;;766590;182;919302;-65
2021/12/30 13:54:32;;;;;;;97.00;41.53;;;;;;;;;;772026;182;918402;-64
2021/12/30 13:56:58;;;;;;;105.33;47.70;;;;;;;;;;768338;181;919292;-64